createdAt,value
2023-04-02T00:01:23.982Z,14.80
2023-04-02T00:04:04.367Z,14.38
2023-04-02T00:06:40.961Z,14.35
2023-04-02T00:09:18.852Z,14.75
2023-04-02T00:11:51.698Z,14.60
2023-04-02T00:14:36.533Z,14.07
2023-04-02T00:17:07.549Z,20.98
2023-04-02T00:20:08.892Z,17.65
2023-04-02T00:22:45.507Z,16.88
2023-04-02T00:25:16.383Z,16.67
2023-04-02T00:27:47.214Z,16.27
2023-04-02T00:30:18.216Z,14.35
2023-04-02T00:32:49.837Z,14.13
2023-04-02T00:35:28.294Z,13.93
2023-04-02T00:37:59.139Z,13.57
2023-04-02T00:40:32.148Z,13.63
2023-04-02T00:43:04.471Z,13.23
2023-04-02T00:45:38.575Z,13.00
2023-04-02T00:48:33.625Z,13.73
2023-04-02T00:51:59.169Z,13.68
2023-04-02T00:54:34.132Z,15.30
2023-04-02T00:57:04.725Z,14.65
2023-04-02T00:59:38.591Z,14.10
2023-04-02T01:02:19.382Z,15.52
2023-04-02T01:05:18.641Z,15.48
2023-04-02T01:07:58.312Z,15.85
2023-04-02T01:11:04.439Z,14.35
2023-04-02T01:13:41.443Z,11.68
2023-04-02T01:16:26.094Z,13.20
2023-04-02T01:19:46.673Z,14.00
2023-04-02T01:22:24.260Z,15.40
2023-04-02T01:24:59.160Z,16.48
2023-04-02T01:27:53.909Z,16.83
2023-04-02T01:30:30.435Z,16.90
2023-04-02T01:33:04.067Z,16.65
2023-04-02T01:35:38.977Z,18.77
2023-04-02T01:38:23.480Z,17.50
2023-04-02T01:41:22.938Z,17.48
2023-04-02T01:44:13.865Z,17.83
2023-04-02T01:46:45.701Z,17.83
2023-04-02T01:49:22.108Z,19.27
2023-04-02T01:51:57.733Z,19.13
2023-04-02T01:54:31.773Z,17.98
2023-04-02T01:57:02.666Z,19.10
2023-04-02T01:59:34.246Z,18.55
2023-04-02T02:02:14.625Z,17.95
2023-04-02T02:04:46.872Z,18.00
2023-04-02T02:07:21.542Z,18.92
2023-04-02T02:09:58.347Z,18.42
2023-04-02T02:12:29.393Z,19.40
2023-04-02T02:15:03.411Z,18.15
2023-04-02T02:17:35.456Z,19.42
2023-04-02T02:20:12.369Z,17.88
2023-04-02T02:22:50.502Z,17.98
2023-04-02T02:25:27.314Z,17.75
2023-04-02T02:28:29.685Z,18.27
2023-04-02T02:31:13.873Z,17.05
2023-04-02T02:33:48.716Z,15.48
2023-04-02T02:36:50.138Z,14.80
2023-04-02T02:39:37.066Z,15.98
2023-04-02T02:42:25.980Z,15.60
2023-04-02T02:44:58.441Z,16.85
2023-04-02T02:47:36.216Z,16.90
2023-04-02T02:50:11.328Z,17.88
2023-04-02T02:52:48.300Z,18.27
2023-04-02T02:55:45.146Z,17.90
2023-04-02T02:58:31.109Z,19.63
2023-04-02T03:01:24.905Z,19.02
2023-04-02T03:03:57.853Z,22.15
2023-04-02T03:06:29.502Z,22.63
2023-04-02T03:09:38.613Z,20.42
2023-04-02T03:12:23.567Z,18.67
2023-04-02T03:15:16.472Z,19.00
2023-04-02T03:17:55.437Z,19.60
2023-04-02T03:20:50.497Z,19.10
2023-04-02T03:23:31.180Z,19.58
2023-04-02T03:26:54.042Z,19.17
2023-04-02T03:29:28.691Z,19.80
2023-04-02T03:32:09.624Z,21.05
2023-04-02T03:34:54.243Z,18.70
2023-04-02T03:37:33.779Z,19.25
2023-04-02T03:40:17.304Z,19.77
2023-04-02T03:42:50.946Z,19.35
2023-04-02T03:45:25.544Z,18.48
2023-04-02T03:48:12.740Z,19.27
2023-04-02T03:50:50.274Z,18.67
2023-04-02T03:53:26.149Z,18.98
2023-04-02T03:55:57.879Z,19.33
2023-04-02T03:58:34.317Z,18.50
2023-04-02T04:01:35.570Z,18.27
2023-04-02T04:04:15.507Z,19.08
2023-04-02T04:06:48.053Z,19.75
2023-04-02T04:09:37.314Z,18.55
2023-04-02T04:12:23.920Z,17.92
2023-04-02T04:15:10.677Z,18.05
2023-04-02T04:17:52.305Z,19.77
2023-04-02T04:20:34.816Z,18.92
2023-04-02T04:23:30.904Z,19.25
2023-04-02T04:26:12.594Z,19.08
2023-04-02T04:28:48.965Z,18.88
2023-04-02T04:31:39.973Z,18.58
2023-04-02T04:34:43.297Z,19.40
2023-04-02T04:37:34.430Z,17.85
2023-04-02T04:40:26.030Z,19.35
2023-04-02T04:43:07.872Z,17.50
2023-04-02T04:46:02.489Z,18.67
2023-04-02T04:48:40.338Z,18.40
2023-04-02T04:51:22.081Z,18.70
2023-04-02T04:53:56.054Z,18.67
2023-04-02T04:56:31.766Z,18.35
2023-04-02T04:59:36.352Z,17.90
2023-04-02T05:02:20.791Z,17.35
2023-04-02T05:04:53.687Z,19.45
2023-04-02T05:07:39.619Z,18.35
2023-04-02T05:10:32.256Z,18.70
2023-04-02T05:13:09.295Z,19.48
2023-04-02T05:16:01.192Z,18.88
2023-04-02T05:18:54.110Z,20.08
2023-04-02T05:21:36.653Z,18.85
2023-04-02T05:24:29.483Z,21.25
2023-04-02T05:27:06.806Z,19.70
2023-04-02T05:29:40.868Z,20.20
2023-04-02T05:32:18.791Z,21.17
2023-04-02T05:34:52.577Z,19.30
2023-04-02T05:37:26.106Z,20.17
2023-04-02T05:40:07.628Z,19.25
2023-04-02T05:42:38.979Z,20.77
2023-04-02T05:45:33.816Z,22.70
2023-04-02T05:48:20.291Z,21.52
2023-04-02T05:50:55.915Z,21.75
2023-04-02T05:53:42.661Z,20.85
2023-04-02T05:56:45.988Z,18.52
2023-04-02T05:59:36.097Z,19.27
2023-04-02T06:02:09.113Z,24.58
2023-04-02T06:04:58.156Z,20.67
2023-04-02T06:07:47.955Z,20.98
2023-04-02T06:10:26.735Z,19.27
2023-04-02T06:13:05.009Z,21.05
2023-04-02T06:15:42.740Z,19.70
2023-04-02T06:18:21.748Z,20.77
2023-04-02T06:20:55.119Z,19.38
2023-04-02T06:23:45.614Z,21.52
2023-04-02T06:26:41.341Z,22.67
2023-04-02T06:29:40.826Z,21.50
2023-04-02T06:32:20.975Z,20.45
2023-04-02T06:34:52.165Z,20.67
2023-04-02T06:37:37.207Z,21.23
2023-04-02T06:40:41.088Z,22.38
2023-04-02T06:43:47.066Z,23.42
2023-04-02T06:47:26.373Z,22.08
2023-04-02T06:50:03.017Z,22.85
2023-04-02T06:52:46.371Z,22.75
2023-04-02T06:55:35.157Z,21.98
2023-04-02T06:58:11.101Z,18.92
2023-04-02T07:00:47.013Z,19.40
2023-04-02T07:03:29.814Z,17.02
2023-04-02T07:06:04.547Z,16.65
2023-04-02T07:08:37.500Z,17.27
2023-04-02T07:11:08.411Z,18.35
2023-04-02T07:13:38.850Z,16.45
2023-04-02T07:16:16.770Z,14.73
2023-04-02T07:18:48.385Z,18.33
2023-04-02T07:21:19.641Z,15.98
2023-04-02T07:23:53.123Z,19.02
2023-04-02T07:26:28.204Z,26.67
2023-04-02T07:28:59.052Z,21.65
2023-04-02T07:31:30.684Z,16.52
2023-04-02T07:34:02.517Z,13.70
2023-04-02T07:36:35.793Z,11.90
2023-04-02T07:39:07.446Z,12.32
2023-04-02T07:41:53.353Z,10.80
2023-04-02T07:44:24.059Z,10.85
2023-04-02T07:46:54.965Z,10.15
2023-04-02T07:49:26.221Z,11.20
2023-04-02T07:51:57.706Z,10.55
2023-04-02T07:54:29.241Z,9.70
2023-04-02T07:57:00.067Z,10.32
2023-04-02T07:59:30.769Z,20.08
2023-04-02T08:02:01.669Z,13.43
2023-04-02T08:04:32.309Z,12.98
2023-04-02T08:07:03.165Z,12.57
2023-04-02T08:09:34.164Z,10.68
2023-04-02T08:12:05.300Z,10.32
2023-04-02T08:14:36.016Z,9.75
2023-04-02T08:17:06.937Z,9.25
2023-04-02T08:19:48.161Z,9.30
2023-04-02T08:22:25.325Z,9.50
2023-04-02T08:24:55.980Z,8.80
2023-04-02T08:27:27.374Z,9.00
2023-04-02T08:29:58.320Z,9.30
2023-04-02T08:32:30.082Z,9.40
2023-04-02T08:35:00.569Z,10.77
2023-04-02T08:37:31.473Z,10.10
2023-04-02T08:40:04.782Z,9.73
2023-04-02T08:42:41.966Z,8.70
2023-04-02T08:45:39.934Z,8.68
2023-04-02T08:48:14.111Z,8.90
2023-04-02T08:50:45.433Z,8.77
2023-04-02T08:53:22.694Z,9.20
2023-04-02T08:56:09.483Z,8.57
2023-04-02T08:58:54.870Z,9.40
2023-04-02T09:01:28.279Z,9.45
2023-04-02T09:04:00.669Z,9.80
2023-04-02T09:06:32.530Z,9.73
2023-04-02T09:09:13.788Z,10.65
2023-04-02T09:11:48.661Z,15.88
2023-04-02T09:14:35.835Z,12.00
2023-04-02T09:17:17.010Z,10.77
2023-04-02T09:19:55.939Z,11.00
2023-04-02T09:22:28.826Z,15.48
2023-04-02T09:25:01.959Z,11.20
2023-04-02T09:27:35.155Z,11.68
2023-04-02T09:30:34.856Z,11.93
2023-04-02T09:33:10.113Z,10.50
2023-04-02T09:35:52.809Z,10.63
2023-04-02T09:38:32.477Z,11.65
2023-04-02T09:41:20.206Z,11.23
2023-04-02T09:43:51.496Z,11.02
2023-04-02T09:46:27.018Z,10.57
2023-04-02T09:49:04.634Z,19.23
2023-04-02T09:51:37.497Z,11.45
2023-04-02T09:54:17.315Z,12.07
2023-04-02T09:57:06.767Z,12.35
2023-04-02T09:59:38.417Z,11.77
2023-04-02T10:02:30.625Z,12.80
2023-04-02T10:05:06.843Z,12.88
2023-04-02T10:07:47.610Z,12.52
2023-04-02T10:10:21.031Z,12.90
2023-04-02T10:13:07.717Z,10.15
2023-04-02T10:16:05.000Z,10.55
2023-04-02T10:18:53.689Z,10.23
2023-04-02T10:21:38.986Z,12.23
2023-04-02T10:24:17.610Z,17.95
2023-04-02T10:27:00.013Z,10.68
2023-04-02T10:30:06.226Z,10.50
2023-04-02T10:33:01.750Z,10.43
2023-04-02T10:35:49.564Z,10.52
2023-04-02T10:38:31.833Z,10.95
2023-04-02T10:41:24.693Z,10.43
2023-04-02T10:44:16.706Z,10.30
2023-04-02T10:47:11.308Z,11.18
2023-04-02T10:50:20.643Z,10.85
2023-04-02T10:52:59.673Z,11.95
2023-04-02T10:55:33.950Z,11.15
2023-04-02T10:58:09.313Z,16.88
2023-04-02T11:00:42.011Z,12.73
2023-04-02T11:03:20.429Z,11.63
2023-04-02T11:05:57.127Z,13.70
2023-04-02T11:08:41.143Z,11.70
2023-04-02T11:11:22.410Z,17.13
2023-04-02T11:14:05.024Z,13.27
2023-04-02T11:16:37.293Z,13.52
2023-04-02T11:19:17.146Z,14.32
2023-04-02T11:22:27.261Z,13.82
2023-04-02T11:24:59.009Z,12.65
2023-04-02T11:27:31.804Z,12.23
2023-04-02T11:30:21.568Z,12.18
2023-04-02T11:32:52.550Z,11.25
2023-04-02T11:35:37.043Z,12.38
2023-04-02T11:38:12.300Z,12.27
2023-04-02T11:40:45.899Z,12.68
2023-04-02T11:43:35.017Z,13.52
2023-04-02T11:46:17.836Z,13.85
2023-04-02T11:48:48.304Z,13.15
2023-04-02T11:51:24.890Z,13.27
2023-04-02T11:53:59.336Z,13.48
2023-04-02T11:56:47.349Z,13.43
2023-04-02T11:59:50.342Z,13.30
2023-04-02T12:02:50.831Z,13.63
2023-04-02T12:05:28.984Z,15.50
2023-04-02T12:07:59.365Z,13.50
2023-04-02T12:10:33.906Z,14.00
2023-04-02T12:13:04.321Z,14.98
2023-04-02T12:15:40.588Z,15.07
2023-04-02T12:18:24.543Z,14.77
2023-04-02T12:20:57.689Z,16.20
2023-04-02T12:23:32.271Z,15.18
2023-04-02T12:26:09.897Z,13.68
2023-04-02T12:28:43.240Z,13.95
2023-04-02T12:31:17.561Z,13.98
2023-04-02T12:33:48.224Z,15.52
2023-04-02T12:36:22.496Z,23.92
2023-04-02T12:38:58.444Z,17.70
2023-04-02T12:41:32.887Z,14.90
2023-04-02T12:44:07.649Z,14.57
2023-04-02T12:46:39.676Z,14.80
2023-04-02T12:49:27.005Z,19.50
2023-04-02T12:51:58.383Z,14.55
2023-04-02T12:54:37.694Z,14.45
2023-04-02T12:57:32.469Z,12.85
2023-04-02T13:00:22.009Z,12.63
2023-04-02T13:02:55.573Z,11.88
2023-04-02T13:05:43.666Z,12.77
2023-04-02T13:08:31.627Z,12.40
2023-04-02T13:11:04.457Z,11.70
2023-04-02T13:13:39.961Z,11.27
2023-04-02T13:16:22.462Z,11.82
2023-04-02T13:18:53.843Z,11.10
2023-04-02T13:21:28.755Z,10.70
2023-04-02T13:23:59.927Z,11.05
2023-04-02T13:26:31.564Z,11.55
2023-04-02T13:29:10.751Z,11.07
2023-04-02T13:31:41.422Z,10.38
2023-04-02T13:34:12.368Z,10.50
2023-04-02T13:36:42.634Z,10.10
2023-04-02T13:39:14.401Z,16.67
2023-04-02T13:41:59.771Z,18.98
2023-04-02T13:44:35.893Z,18.17
2023-04-02T13:47:06.512Z,18.15
2023-04-02T13:49:45.039Z,17.65
2023-04-02T13:52:18.438Z,20.63
2023-04-02T13:54:51.791Z,20.30
2023-04-02T13:57:22.480Z,18.35
2023-04-02T13:59:53.183Z,16.02
2023-04-02T14:02:26.194Z,16.02
2023-04-02T14:05:30.134Z,15.10
2023-04-02T14:08:13.175Z,14.23
2023-04-02T14:10:53.139Z,15.77
2023-04-02T14:13:38.721Z,16.77
2023-04-02T14:16:20.883Z,18.00
2023-04-02T14:19:07.184Z,18.13
2023-04-02T14:22:02.190Z,17.67
2023-04-02T14:25:12.953Z,18.63
2023-04-02T14:28:24.520Z,14.32
2023-04-02T14:31:00.430Z,14.48
2023-04-02T14:34:09.808Z,13.90
2023-04-02T14:36:58.564Z,13.45
2023-04-02T14:39:38.729Z,10.45
2023-04-02T14:42:19.253Z,11.63
2023-04-02T14:45:08.274Z,10.07
2023-04-02T14:48:02.260Z,9.18
2023-04-02T14:50:39.926Z,8.82
2023-04-02T14:53:40.398Z,8.63
2023-04-02T14:56:13.405Z,8.27
2023-04-02T14:58:52.812Z,8.23
2023-04-02T15:01:29.129Z,7.28
2023-04-02T15:04:14.413Z,7.75
2023-04-02T15:06:49.661Z,7.03
2023-04-02T15:09:30.315Z,7.50
2023-04-02T15:12:26.137Z,7.13
2023-04-02T15:15:15.354Z,7.75
2023-04-02T15:17:46.128Z,7.78
2023-04-02T15:20:18.580Z,8.07
2023-04-02T15:22:59.017Z,7.82
2023-04-02T15:25:50.767Z,7.43
2023-04-02T15:28:24.104Z,7.97
2023-04-02T15:31:01.239Z,8.13
2023-04-02T15:33:55.889Z,7.75
2023-04-02T15:36:36.357Z,7.93
2023-04-02T15:39:24.867Z,8.57
2023-04-02T15:42:20.364Z,8.35
2023-04-02T15:45:09.720Z,9.35
2023-04-02T15:47:49.404Z,12.07
2023-04-02T15:50:39.465Z,10.50
2023-04-02T15:53:23.184Z,10.68
2023-04-02T15:56:16.176Z,10.98
2023-04-02T15:58:52.695Z,10.82
2023-04-02T16:01:32.492Z,10.73
2023-04-02T16:04:22.170Z,10.00
2023-04-02T16:07:49.149Z,10.27
2023-04-02T16:10:40.183Z,10.60
2023-04-02T16:13:30.565Z,9.40
2023-04-02T16:16:06.474Z,9.85
2023-04-02T16:19:04.661Z,10.40
2023-04-02T16:21:40.314Z,9.65
2023-04-02T16:24:14.484Z,9.70
2023-04-02T16:27:01.557Z,9.60
2023-04-02T16:29:47.110Z,9.98
2023-04-02T16:32:24.320Z,9.32
2023-04-02T16:35:01.961Z,9.82
2023-04-02T16:38:21.419Z,9.77
2023-04-02T16:41:11.014Z,9.27
2023-04-02T16:44:07.093Z,9.25
2023-04-02T16:46:58.903Z,9.70
2023-04-02T16:49:53.912Z,10.68
2023-04-02T16:52:31.649Z,12.52
2023-04-02T16:55:14.401Z,13.50
2023-04-02T16:58:09.020Z,14.05
2023-04-02T17:00:47.646Z,13.18
2023-04-02T17:03:42.758Z,13.07
2023-04-02T17:06:37.245Z,13.52
2023-04-02T17:09:27.157Z,13.45
2023-04-02T17:12:12.954Z,13.35
2023-04-02T17:15:00.830Z,11.80
2023-04-02T17:17:31.716Z,11.80
2023-04-02T17:20:11.429Z,12.05
2023-04-02T17:22:41.893Z,12.30
2023-04-02T17:25:20.931Z,12.00
2023-04-02T17:27:55.656Z,11.90
2023-04-02T17:30:48.142Z,11.20
2023-04-02T17:33:20.370Z,12.25
2023-04-02T17:35:56.413Z,11.20
2023-04-02T17:38:37.537Z,11.68
2023-04-02T17:41:19.681Z,11.32
2023-04-02T17:44:12.716Z,11.13
2023-04-02T17:46:46.643Z,11.15
2023-04-02T17:49:38.379Z,10.77
2023-04-02T17:52:38.061Z,9.98
2023-04-02T17:55:11.259Z,9.68
2023-04-02T17:57:51.224Z,8.73
2023-04-02T18:00:27.077Z,9.27
2023-04-02T18:03:02.676Z,9.02
2023-04-02T18:05:52.084Z,9.63
2023-04-02T18:08:26.483Z,8.98
2023-04-02T18:11:35.761Z,8.60
2023-04-02T18:14:19.940Z,9.85
2023-04-02T18:17:08.958Z,10.45
2023-04-02T18:20:21.677Z,10.18
2023-04-02T18:23:13.378Z,10.60
2023-04-02T18:25:57.591Z,11.05
2023-04-02T18:29:03.363Z,11.40
2023-04-02T18:32:05.399Z,12.15
2023-04-02T18:34:45.956Z,13.80
2023-04-02T18:37:34.693Z,13.73
2023-04-02T18:40:22.658Z,14.07
2023-04-02T18:43:24.177Z,14.88
2023-04-02T18:46:15.848Z,14.32
2023-04-02T18:49:20.986Z,15.48
2023-04-02T18:51:56.102Z,14.77
2023-04-02T18:54:34.994Z,14.77
2023-04-02T18:57:19.298Z,15.35
2023-04-02T19:00:05.528Z,15.25
2023-04-02T19:03:08.162Z,16.38
2023-04-02T19:05:46.262Z,17.42
2023-04-02T19:08:24.733Z,16.80
2023-04-02T19:10:59.532Z,17.80
2023-04-02T19:13:30.076Z,17.55
2023-04-02T19:16:18.909Z,19.38
2023-04-02T19:19:01.245Z,19.48
2023-04-02T19:22:01.328Z,19.95
2023-04-02T19:24:37.836Z,19.13
2023-04-02T19:27:39.321Z,19.10
2023-04-02T19:30:49.955Z,20.45
2023-04-02T19:33:42.484Z,18.67
2023-04-02T19:36:19.973Z,18.95
2023-04-02T19:39:05.179Z,18.23
2023-04-02T19:41:49.063Z,17.65
2023-04-02T19:44:19.750Z,18.58
2023-04-02T19:46:52.301Z,19.02
2023-04-02T19:49:34.925Z,18.88
2023-04-02T19:52:06.205Z,19.63
2023-04-02T19:54:38.212Z,19.42
2023-04-02T19:57:08.641Z,20.67
2023-04-02T19:59:39.000Z,21.50
2023-04-02T20:02:11.395Z,23.27
2023-04-02T20:04:43.420Z,23.60
2023-04-02T20:07:13.873Z,24.80
2023-04-02T20:09:44.286Z,22.42
2023-04-02T20:12:15.181Z,23.42
2023-04-02T20:14:45.829Z,22.20
2023-04-02T20:17:16.956Z,20.45
2023-04-02T20:19:47.343Z,19.70
2023-04-02T20:22:20.098Z,19.75
2023-04-02T20:24:51.254Z,18.52
2023-04-02T20:27:21.859Z,18.50
2023-04-02T20:29:52.790Z,17.67
2023-04-02T20:32:54.361Z,16.75
2023-04-02T20:35:26.518Z,16.50
2023-04-02T20:37:57.454Z,16.33
2023-04-02T20:40:28.056Z,14.48
2023-04-02T20:43:07.130Z,13.25
2023-04-02T20:45:38.299Z,13.93
2023-04-02T20:48:08.988Z,13.38
2023-04-02T20:50:39.326Z,13.73
2023-04-02T20:53:10.199Z,13.15
2023-04-02T20:55:40.646Z,13.10
2023-04-02T20:58:10.910Z,11.93
2023-04-02T21:00:43.469Z,12.82
2023-04-02T21:03:14.865Z,13.02
2023-04-02T21:05:49.206Z,12.95
2023-04-02T21:08:22.128Z,13.45
2023-04-02T21:10:53.584Z,12.75
2023-04-02T21:13:24.379Z,13.95
2023-04-02T21:15:55.080Z,12.52
2023-04-02T21:18:25.476Z,14.27
2023-04-02T21:21:05.662Z,12.45
2023-04-02T21:23:36.697Z,13.85
2023-04-02T21:26:11.964Z,13.13
2023-04-02T21:28:43.348Z,13.93
2023-04-02T21:31:27.892Z,13.95
2023-04-02T21:33:59.881Z,13.73
2023-04-02T21:36:36.356Z,13.43
2023-04-02T21:39:09.036Z,13.95
2023-04-02T21:41:44.285Z,13.73
2023-04-02T21:44:20.326Z,15.30
2023-04-02T21:46:53.087Z,16.00
2023-04-02T21:49:27.252Z,17.35
2023-04-02T21:51:58.279Z,18.27
2023-04-02T21:54:28.900Z,18.02
2023-04-02T21:57:01.896Z,17.27
2023-04-02T21:59:32.477Z,18.33
2023-04-02T22:02:03.348Z,19.13
2023-04-02T22:04:34.227Z,19.13
2023-04-02T22:07:04.566Z,19.10
2023-04-02T22:09:43.419Z,20.98
2023-04-02T22:12:14.687Z,20.80
2023-04-02T22:14:44.812Z,19.60
2023-04-02T22:17:15.463Z,19.77
2023-04-02T22:19:46.602Z,19.58
2023-04-02T22:22:17.405Z,18.65
2023-04-02T22:24:48.017Z,20.08
2023-04-02T22:27:18.464Z,23.27
2023-04-02T22:29:49.450Z,19.95
2023-04-02T22:32:20.410Z,19.85
2023-04-02T22:34:50.694Z,20.35
2023-04-02T22:37:21.032Z,21.13
2023-04-02T22:39:52.043Z,18.38
2023-04-02T22:42:22.835Z,17.92
2023-04-02T22:44:56.378Z,15.75
2023-04-02T22:47:27.112Z,14.82
2023-04-02T22:49:57.951Z,14.60
2023-04-02T22:52:28.281Z,14.63
2023-04-02T22:54:58.972Z,16.30
2023-04-02T22:57:29.335Z,15.82
2023-04-02T23:00:00.004Z,15.65
2023-04-02T23:02:30.290Z,17.13
2023-04-02T23:05:01.028Z,17.83
2023-04-02T23:07:32.179Z,17.60
2023-04-02T23:10:04.610Z,19.55
2023-04-02T23:12:41.304Z,20.23
2023-04-02T23:15:12.658Z,19.48
2023-04-02T23:17:43.325Z,18.45
2023-04-02T23:20:14.979Z,19.35
2023-04-02T23:22:45.114Z,18.75
2023-04-02T23:25:19.412Z,18.23
2023-04-02T23:27:51.107Z,17.80
2023-04-02T23:30:22.571Z,17.00
2023-04-02T23:32:56.339Z,16.85
2023-04-02T23:35:27.304Z,17.42
2023-04-02T23:37:57.625Z,16.23
2023-04-02T23:40:28.573Z,16.75
2023-04-02T23:42:59.243Z,16.27
2023-04-02T23:45:33.068Z,16.50
2023-04-02T23:48:04.063Z,16.83
2023-04-02T23:50:34.917Z,17.33
2023-04-02T23:53:05.608Z,17.35
2023-04-02T23:55:37.130Z,16.83
2023-04-02T23:58:07.623Z,15.98
